sensor_id;sensor_type;location;lat;lon;timestamp;P1;durP1;ratioP1;P2;durP2;ratioP2
15142;SDS011;7672;50.834;6.286;2023-02-15T00:00:05;21.83;;;13.67;;
15142;SDS011;7672;50.834;6.286;2023-02-15T00:02:49;25.00;;;14.33;;
15142;SDS011;7672;50.834;6.286;2023-02-15T00:05:16;23.53;;;14.10;;
15142;SDS011;7672;50.834;6.286;2023-02-15T00:07:42;22.17;;;15.03;;
15142;SDS011;7672;50.834;6.286;2023-02-15T00:10:09;23.50;;;14.13;;
15142;SDS011;7672;50.834;6.286;2023-02-15T00:12:38;21.80;;;14.00;;
15142;SDS011;7672;50.834;6.286;2023-02-15T00:15:04;22.40;;;14.83;;
15142;SDS011;7672;50.834;6.286;2023-02-15T00:17:32;22.47;;;14.07;;
15142;SDS011;7672;50.834;6.286;2023-02-15T00:19:58;24.57;;;15.60;;
15142;SDS011;7672;50.834;6.286;2023-02-15T00:22:25;21.53;;;13.77;;
15142;SDS011;7672;50.834;6.286;2023-02-15T00:24:52;23.23;;;14.47;;
15142;SDS011;7672;50.834;6.286;2023-02-15T00:27:19;28.40;;;14.50;;
15142;SDS011;7672;50.834;6.286;2023-02-15T00:29:46;24.30;;;14.87;;
15142;SDS011;7672;50.834;6.286;2023-02-15T00:32:13;24.50;;;14.57;;
15142;SDS011;7672;50.834;6.286;2023-02-15T00:34:40;29.17;;;14.43;;
15142;SDS011;7672;50.834;6.286;2023-02-15T00:37:09;23.30;;;14.37;;
15142;SDS011;7672;50.834;6.286;2023-02-15T00:39:36;26.67;;;14.13;;
15142;SDS011;7672;50.834;6.286;2023-02-15T00:42:03;24.33;;;15.47;;
15142;SDS011;7672;50.834;6.286;2023-02-15T00:44:30;23.20;;;15.03;;
15142;SDS011;7672;50.834;6.286;2023-02-15T00:46:56;22.60;;;14.37;;
15142;SDS011;7672;50.834;6.286;2023-02-15T00:49:23;24.63;;;15.93;;
15142;SDS011;7672;50.834;6.286;2023-02-15T00:51:50;22.30;;;14.50;;
15142;SDS011;7672;50.834;6.286;2023-02-15T00:54:17;24.87;;;15.40;;
15142;SDS011;7672;50.834;6.286;2023-02-15T00:56:44;25.77;;;15.43;;
15142;SDS011;7672;50.834;6.286;2023-02-15T00:59:10;21.10;;;13.37;;
15142;SDS011;7672;50.834;6.286;2023-02-15T01:01:37;23.63;;;14.17;;
15142;SDS011;7672;50.834;6.286;2023-02-15T01:04:04;22.77;;;14.57;;
15142;SDS011;7672;50.834;6.286;2023-02-15T01:06:31;24.37;;;14.10;;
15142;SDS011;7672;50.834;6.286;2023-02-15T01:08:58;23.50;;;13.90;;
15142;SDS011;7672;50.834;6.286;2023-02-15T01:11:25;26.07;;;15.27;;
15142;SDS011;7672;50.834;6.286;2023-02-15T01:13:53;23.63;;;14.27;;
15142;SDS011;7672;50.834;6.286;2023-02-15T01:16:23;27.93;;;15.13;;
15142;SDS011;7672;50.834;6.286;2023-02-15T01:18:52;24.83;;;14.07;;
15142;SDS011;7672;50.834;6.286;2023-02-15T01:21:21;22.97;;;13.53;;
15142;SDS011;7672;50.834;6.286;2023-02-15T01:23:50;22.67;;;14.40;;
15142;SDS011;7672;50.834;6.286;2023-02-15T01:26:18;21.90;;;13.77;;
15142;SDS011;7672;50.834;6.286;2023-02-15T01:28:45;25.07;;;14.53;;
15142;SDS011;7672;50.834;6.286;2023-02-15T01:31:13;24.23;;;13.70;;
15142;SDS011;7672;50.834;6.286;2023-02-15T01:33:47;22.40;;;14.47;;
15142;SDS011;7672;50.834;6.286;2023-02-15T01:36:15;22.87;;;14.40;;
15142;SDS011;7672;50.834;6.286;2023-02-15T01:38:43;25.40;;;14.37;;
15142;SDS011;7672;50.834;6.286;2023-02-15T01:41:10;25.13;;;14.43;;
15142;SDS011;7672;50.834;6.286;2023-02-15T01:43:53;20.70;;;13.43;;
15142;SDS011;7672;50.834;6.286;2023-02-15T01:46:31;22.90;;;14.63;;
15142;SDS011;7672;50.834;6.286;2023-02-15T01:49:15;26.40;;;15.43;;
15142;SDS011;7672;50.834;6.286;2023-02-15T01:51:47;24.13;;;14.37;;
15142;SDS011;7672;50.834;6.286;2023-02-15T01:54:23;19.97;;;13.60;;
15142;SDS011;7672;50.834;6.286;2023-02-15T01:57:01;22.33;;;13.23;;
15142;SDS011;7672;50.834;6.286;2023-02-15T01:59:35;23.97;;;14.43;;
15142;SDS011;7672;50.834;6.286;2023-02-15T02:02:05;27.83;;;14.53;;
15142;SDS011;7672;50.834;6.286;2023-02-15T02:04:41;29.40;;;15.00;;
15142;SDS011;7672;50.834;6.286;2023-02-15T02:07:15;24.97;;;15.13;;
15142;SDS011;7672;50.834;6.286;2023-02-15T02:09:47;25.03;;;14.60;;
15142;SDS011;7672;50.834;6.286;2023-02-15T02:12:15;25.83;;;14.37;;
15142;SDS011;7672;50.834;6.286;2023-02-15T02:14:44;25.33;;;14.07;;
15142;SDS011;7672;50.834;6.286;2023-02-15T02:20:18;22.77;;;13.40;;
15142;SDS011;7672;50.834;6.286;2023-02-15T02:23:33;24.43;;;14.33;;
15142;SDS011;7672;50.834;6.286;2023-02-15T02:26:32;23.37;;;14.17;;
15142;SDS011;7672;50.834;6.286;2023-02-15T02:39:14;21.63;;;13.77;;
15142;SDS011;7672;50.834;6.286;2023-02-15T02:45:08;21.27;;;12.83;;
15142;SDS011;7672;50.834;6.286;2023-02-15T02:47:59;22.50;;;13.77;;
15142;SDS011;7672;50.834;6.286;2023-02-15T02:50:33;28.13;;;14.17;;
15142;SDS011;7672;50.834;6.286;2023-02-15T02:53:00;22.37;;;13.43;;
15142;SDS011;7672;50.834;6.286;2023-02-15T03:00:48;23.30;;;14.47;;
15142;SDS011;7672;50.834;6.286;2023-02-15T03:03:57;23.90;;;14.33;;
15142;SDS011;7672;50.834;6.286;2023-02-15T03:06:20;24.00;;;15.47;;
15142;SDS011;7672;50.834;6.286;2023-02-15T03:09:09;21.77;;;15.57;;
15142;SDS011;7672;50.834;6.286;2023-02-15T03:11:45;27.63;;;15.07;;
15142;SDS011;7672;50.834;6.286;2023-02-15T03:14:14;23.80;;;15.50;;
15142;SDS011;7672;50.834;6.286;2023-02-15T03:16:46;21.13;;;14.10;;
15142;SDS011;7672;50.834;6.286;2023-02-15T03:19:17;27.97;;;15.97;;
15142;SDS011;7672;50.834;6.286;2023-02-15T03:21:54;27.40;;;14.70;;
15142;SDS011;7672;50.834;6.286;2023-02-15T03:24:40;28.07;;;14.90;;
15142;SDS011;7672;50.834;6.286;2023-02-15T03:27:43;25.23;;;15.70;;
15142;SDS011;7672;50.834;6.286;2023-02-15T03:30:31;33.90;;;16.40;;
15142;SDS011;7672;50.834;6.286;2023-02-15T03:33:01;27.77;;;16.33;;
15142;SDS011;7672;50.834;6.286;2023-02-15T03:35:33;26.90;;;14.77;;
15142;SDS011;7672;50.834;6.286;2023-02-15T03:38:30;27.33;;;15.93;;
15142;SDS011;7672;50.834;6.286;2023-02-15T03:41:09;31.70;;;16.03;;
15142;SDS011;7672;50.834;6.286;2023-02-15T03:43:48;25.37;;;14.53;;
15142;SDS011;7672;50.834;6.286;2023-02-15T03:49:27;24.70;;;14.17;;
15142;SDS011;7672;50.834;6.286;2023-02-15T03:52:14;31.57;;;15.53;;
15142;SDS011;7672;50.834;6.286;2023-02-15T03:54:43;30.93;;;15.43;;
15142;SDS011;7672;50.834;6.286;2023-02-15T03:57:21;29.23;;;15.17;;
15142;SDS011;7672;50.834;6.286;2023-02-15T04:00:17;25.93;;;14.07;;
15142;SDS011;7672;50.834;6.286;2023-02-15T04:05:42;27.70;;;14.00;;
15142;SDS011;7672;50.834;6.286;2023-02-15T04:08:10;27.93;;;14.90;;
15142;SDS011;7672;50.834;6.286;2023-02-15T04:10:38;25.20;;;14.13;;
15142;SDS011;7672;50.834;6.286;2023-02-15T04:13:23;25.90;;;15.43;;
15142;SDS011;7672;50.834;6.286;2023-02-15T04:15:56;26.00;;;15.17;;
15142;SDS011;7672;50.834;6.286;2023-02-15T04:18:34;23.47;;;14.87;;
15142;SDS011;7672;50.834;6.286;2023-02-15T04:21:26;26.93;;;14.20;;
15142;SDS011;7672;50.834;6.286;2023-02-15T04:24:15;24.27;;;14.00;;
15142;SDS011;7672;50.834;6.286;2023-02-15T04:27:01;24.10;;;13.80;;
15142;SDS011;7672;50.834;6.286;2023-02-15T04:29:30;19.87;;;13.83;;
15142;SDS011;7672;50.834;6.286;2023-02-15T04:31:58;23.10;;;13.87;;
15142;SDS011;7672;50.834;6.286;2023-02-15T04:34:27;25.10;;;14.33;;
15142;SDS011;7672;50.834;6.286;2023-02-15T04:36:54;23.43;;;14.43;;
15142;SDS011;7672;50.834;6.286;2023-02-15T04:39:21;25.13;;;13.83;;
15142;SDS011;7672;50.834;6.286;2023-02-15T04:41:48;21.27;;;13.47;;
15142;SDS011;7672;50.834;6.286;2023-02-15T04:44:15;23.63;;;13.90;;
15142;SDS011;7672;50.834;6.286;2023-02-15T04:46:42;26.67;;;14.33;;
15142;SDS011;7672;50.834;6.286;2023-02-15T04:49:09;23.03;;;13.97;;
15142;SDS011;7672;50.834;6.286;2023-02-15T04:51:37;26.40;;;14.97;;
15142;SDS011;7672;50.834;6.286;2023-02-15T04:54:03;23.80;;;14.13;;
15142;SDS011;7672;50.834;6.286;2023-02-15T04:56:30;25.10;;;15.17;;
15142;SDS011;7672;50.834;6.286;2023-02-15T04:58:59;22.70;;;13.63;;
15142;SDS011;7672;50.834;6.286;2023-02-15T05:01:26;27.63;;;15.20;;
15142;SDS011;7672;50.834;6.286;2023-02-15T05:03:53;26.10;;;14.30;;
15142;SDS011;7672;50.834;6.286;2023-02-15T05:06:20;23.77;;;14.37;;
15142;SDS011;7672;50.834;6.286;2023-02-15T05:08:51;24.67;;;13.63;;
15142;SDS011;7672;50.834;6.286;2023-02-15T05:11:28;23.93;;;14.20;;
15142;SDS011;7672;50.834;6.286;2023-02-15T05:13:55;32.80;;;15.37;;
15142;SDS011;7672;50.834;6.286;2023-02-15T05:16:22;21.70;;;13.93;;
15142;SDS011;7672;50.834;6.286;2023-02-15T05:18:49;23.97;;;15.03;;
15142;SDS011;7672;50.834;6.286;2023-02-15T05:21:16;22.37;;;14.30;;
15142;SDS011;7672;50.834;6.286;2023-02-15T05:23:43;24.20;;;14.33;;
15142;SDS011;7672;50.834;6.286;2023-02-15T05:26:10;22.30;;;14.10;;
15142;SDS011;7672;50.834;6.286;2023-02-15T05:29:09;26.97;;;13.80;;
15142;SDS011;7672;50.834;6.286;2023-02-15T05:31:42;25.20;;;14.53;;
15142;SDS011;7672;50.834;6.286;2023-02-15T05:34:17;25.30;;;14.77;;
15142;SDS011;7672;50.834;6.286;2023-02-15T05:36:47;20.13;;;13.77;;
15142;SDS011;7672;50.834;6.286;2023-02-15T05:39:21;22.60;;;14.03;;
15142;SDS011;7672;50.834;6.286;2023-02-15T05:41:48;25.73;;;13.30;;
15142;SDS011;7672;50.834;6.286;2023-02-15T05:44:15;24.53;;;14.53;;
15142;SDS011;7672;50.834;6.286;2023-02-15T05:46:41;23.83;;;14.97;;
15142;SDS011;7672;50.834;6.286;2023-02-15T05:49:10;27.60;;;15.93;;
15142;SDS011;7672;50.834;6.286;2023-02-15T05:51:36;23.33;;;14.27;;
15142;SDS011;7672;50.834;6.286;2023-02-15T05:54:03;25.33;;;14.63;;
15142;SDS011;7672;50.834;6.286;2023-02-15T05:56:30;26.00;;;15.30;;
15142;SDS011;7672;50.834;6.286;2023-02-15T05:58:57;25.47;;;14.33;;
15142;SDS011;7672;50.834;6.286;2023-02-15T06:01:24;27.80;;;15.17;;
15142;SDS011;7672;50.834;6.286;2023-02-15T06:03:51;23.97;;;14.93;;
15142;SDS011;7672;50.834;6.286;2023-02-15T06:06:18;29.03;;;14.60;;
15142;SDS011;7672;50.834;6.286;2023-02-15T06:08:45;26.97;;;14.70;;
15142;SDS011;7672;50.834;6.286;2023-02-15T06:11:12;28.83;;;15.87;;
15142;SDS011;7672;50.834;6.286;2023-02-15T06:13:38;24.70;;;15.27;;
15142;SDS011;7672;50.834;6.286;2023-02-15T06:16:06;28.27;;;15.73;;
15142;SDS011;7672;50.834;6.286;2023-02-15T06:18:33;26.37;;;15.10;;
15142;SDS011;7672;50.834;6.286;2023-02-15T06:21:00;27.10;;;14.97;;
15142;SDS011;7672;50.834;6.286;2023-02-15T06:23:27;30.60;;;15.20;;
15142;SDS011;7672;50.834;6.286;2023-02-15T06:25:54;27.20;;;15.27;;
15142;SDS011;7672;50.834;6.286;2023-02-15T06:28:21;25.77;;;15.23;;
15142;SDS011;7672;50.834;6.286;2023-02-15T06:30:48;23.87;;;14.60;;
15142;SDS011;7672;50.834;6.286;2023-02-15T06:33:15;25.87;;;14.90;;
15142;SDS011;7672;50.834;6.286;2023-02-15T06:35:41;26.57;;;15.80;;
15142;SDS011;7672;50.834;6.286;2023-02-15T06:38:09;30.60;;;16.07;;
15142;SDS011;7672;50.834;6.286;2023-02-15T06:40:35;33.50;;;15.27;;
15142;SDS011;7672;50.834;6.286;2023-02-15T06:43:02;23.97;;;14.67;;
15142;SDS011;7672;50.834;6.286;2023-02-15T06:45:30;25.03;;;15.23;;
15142;SDS011;7672;50.834;6.286;2023-02-15T06:47:56;32.73;;;14.00;;
15142;SDS011;7672;50.834;6.286;2023-02-15T06:50:23;30.27;;;15.50;;
15142;SDS011;7672;50.834;6.286;2023-02-15T06:52:54;27.07;;;14.87;;
15142;SDS011;7672;50.834;6.286;2023-02-15T06:55:23;25.30;;;14.93;;
15142;SDS011;7672;50.834;6.286;2023-02-15T06:57:50;33.67;;;15.97;;
15142;SDS011;7672;50.834;6.286;2023-02-15T07:00:17;30.53;;;15.00;;
15142;SDS011;7672;50.834;6.286;2023-02-15T07:02:44;28.77;;;16.63;;
15142;SDS011;7672;50.834;6.286;2023-02-15T07:05:11;28.37;;;15.50;;
15142;SDS011;7672;50.834;6.286;2023-02-15T07:07:38;36.50;;;16.77;;
15142;SDS011;7672;50.834;6.286;2023-02-15T07:10:05;31.33;;;17.57;;
15142;SDS011;7672;50.834;6.286;2023-02-15T07:12:32;29.20;;;17.23;;
15142;SDS011;7672;50.834;6.286;2023-02-15T07:15:09;39.80;;;17.67;;
15142;SDS011;7672;50.834;6.286;2023-02-15T07:17:39;34.80;;;18.83;;
15142;SDS011;7672;50.834;6.286;2023-02-15T07:20:08;42.43;;;20.00;;
15142;SDS011;7672;50.834;6.286;2023-02-15T07:22:42;36.37;;;19.53;;
15142;SDS011;7672;50.834;6.286;2023-02-15T07:25:09;34.97;;;20.23;;
15142;SDS011;7672;50.834;6.286;2023-02-15T07:27:38;32.90;;;19.07;;
15142;SDS011;7672;50.834;6.286;2023-02-15T07:30:06;32.07;;;17.90;;
15142;SDS011;7672;50.834;6.286;2023-02-15T07:32:36;37.40;;;17.57;;
15142;SDS011;7672;50.834;6.286;2023-02-15T07:35:24;46.63;;;18.73;;
15142;SDS011;7672;50.834;6.286;2023-02-15T07:37:51;34.17;;;17.33;;
15142;SDS011;7672;50.834;6.286;2023-02-15T07:40:19;30.20;;;16.07;;
15142;SDS011;7672;50.834;6.286;2023-02-15T07:42:49;28.07;;;17.03;;
15142;SDS011;7672;50.834;6.286;2023-02-15T07:45:21;27.87;;;16.67;;
15142;SDS011;7672;50.834;6.286;2023-02-15T07:47:48;22.67;;;15.73;;
15142;SDS011;7672;50.834;6.286;2023-02-15T07:50:15;23.53;;;14.83;;
15142;SDS011;7672;50.834;6.286;2023-02-15T07:52:42;28.23;;;15.70;;
15142;SDS011;7672;50.834;6.286;2023-02-15T07:55:09;24.80;;;15.73;;
15142;SDS011;7672;50.834;6.286;2023-02-15T07:57:45;25.23;;;16.23;;
15142;SDS011;7672;50.834;6.286;2023-02-15T08:00:15;22.27;;;15.50;;
15142;SDS011;7672;50.834;6.286;2023-02-15T08:02:49;25.47;;;16.67;;
15142;SDS011;7672;50.834;6.286;2023-02-15T08:05:41;26.93;;;17.30;;
15142;SDS011;7672;50.834;6.286;2023-02-15T08:08:11;23.27;;;16.13;;
15142;SDS011;7672;50.834;6.286;2023-02-15T08:13:59;26.70;;;17.63;;
15142;SDS011;7672;50.834;6.286;2023-02-15T08:16:38;22.67;;;15.70;;
15142;SDS011;7672;50.834;6.286;2023-02-15T08:19:11;22.63;;;15.40;;
15142;SDS011;7672;50.834;6.286;2023-02-15T08:21:45;24.13;;;19.23;;
15142;SDS011;7672;50.834;6.286;2023-02-15T08:24:25;24.47;;;19.83;;
15142;SDS011;7672;50.834;6.286;2023-02-15T08:26:57;24.17;;;19.73;;
15142;SDS011;7672;50.834;6.286;2023-02-15T08:29:26;27.67;;;19.97;;
15142;SDS011;7672;50.834;6.286;2023-02-15T08:31:55;28.13;;;20.07;;
15142;SDS011;7672;50.834;6.286;2023-02-15T08:34:29;24.57;;;20.33;;
15142;SDS011;7672;50.834;6.286;2023-02-15T08:37:00;26.63;;;20.70;;
15142;SDS011;7672;50.834;6.286;2023-02-15T08:39:27;27.20;;;20.07;;
15142;SDS011;7672;50.834;6.286;2023-02-15T08:41:54;26.73;;;19.80;;
15142;SDS011;7672;50.834;6.286;2023-02-15T08:44:21;22.87;;;19.23;;
15142;SDS011;7672;50.834;6.286;2023-02-15T08:46:49;27.67;;;19.67;;
15142;SDS011;7672;50.834;6.286;2023-02-15T08:49:17;24.80;;;18.90;;
15142;SDS011;7672;50.834;6.286;2023-02-15T08:51:47;27.13;;;19.47;;
15142;SDS011;7672;50.834;6.286;2023-02-15T08:54:16;22.80;;;19.27;;
15142;SDS011;7672;50.834;6.286;2023-02-15T08:56:45;22.20;;;19.50;;
15142;SDS011;7672;50.834;6.286;2023-02-15T08:59:14;24.83;;;19.27;;
15142;SDS011;7672;50.834;6.286;2023-02-15T09:01:44;25.60;;;20.00;;
15142;SDS011;7672;50.834;6.286;2023-02-15T09:04:13;40.60;;;27.67;;
15142;SDS011;7672;50.834;6.286;2023-02-15T09:06:42;33.47;;;23.80;;
15142;SDS011;7672;50.834;6.286;2023-02-15T09:09:14;33.97;;;24.80;;
15142;SDS011;7672;50.834;6.286;2023-02-15T09:11:43;34.53;;;26.70;;
15142;SDS011;7672;50.834;6.286;2023-02-15T09:14:14;31.13;;;23.10;;
15142;SDS011;7672;50.834;6.286;2023-02-15T09:16:47;26.37;;;22.23;;
15142;SDS011;7672;50.834;6.286;2023-02-15T09:19:17;25.37;;;19.40;;
15142;SDS011;7672;50.834;6.286;2023-02-15T09:21:46;27.67;;;18.53;;
15142;SDS011;7672;50.834;6.286;2023-02-15T09:24:15;19.60;;;17.57;;
15142;SDS011;7672;50.834;6.286;2023-02-15T09:26:44;20.20;;;18.10;;
15142;SDS011;7672;50.834;6.286;2023-02-15T09:29:14;22.17;;;17.63;;
15142;SDS011;7672;50.834;6.286;2023-02-15T09:31:46;22.27;;;18.03;;
15142;SDS011;7672;50.834;6.286;2023-02-15T09:34:17;21.77;;;18.00;;
15142;SDS011;7672;50.834;6.286;2023-02-15T09:36:46;27.97;;;19.93;;
15142;SDS011;7672;50.834;6.286;2023-02-15T09:39:15;23.27;;;19.63;;
15142;SDS011;7672;50.834;6.286;2023-02-15T09:50:37;24.63;;;19.05;;
15142;SDS011;7672;50.834;6.286;2023-02-15T09:59:54;22.42;;;19.23;;
15142;SDS011;7672;50.834;6.286;2023-02-15T10:05:53;22.60;;;19.07;;
15142;SDS011;7672;50.834;6.286;2023-02-15T10:12:07;25.38;;;19.10;;
15142;SDS011;7672;50.834;6.286;2023-02-15T10:27:05;21.97;;;17.17;;
15142;SDS011;7672;50.834;6.286;2023-02-15T10:29:42;21.20;;;18.37;;
15142;SDS011;7672;50.834;6.286;2023-02-15T10:33:00;22.97;;;18.07;;
15142;SDS011;7672;50.834;6.286;2023-02-15T10:39:00;20.73;;;18.53;;
15142;SDS011;7672;50.834;6.286;2023-02-15T10:52:25;21.27;;;18.50;;
15142;SDS011;7672;50.834;6.286;2023-02-15T11:02:07;19.52;;;17.50;;
15142;SDS011;7672;50.834;6.286;2023-02-15T11:07:33;21.83;;;18.85;;
15142;SDS011;7672;50.834;6.286;2023-02-15T11:17:04;23.05;;;19.02;;
15142;SDS011;7672;50.834;6.286;2023-02-15T11:20:08;22.02;;;18.58;;
15142;SDS011;7672;50.834;6.286;2023-02-15T11:22:59;22.80;;;18.77;;
15142;SDS011;7672;50.834;6.286;2023-02-15T11:25:32;22.38;;;19.20;;
15142;SDS011;7672;50.834;6.286;2023-02-15T11:28:06;21.17;;;18.92;;
15142;SDS011;7672;50.834;6.286;2023-02-15T11:30:49;20.23;;;17.67;;
15142;SDS011;7672;50.834;6.286;2023-02-15T11:33:29;21.77;;;19.55;;
15142;SDS011;7672;50.834;6.286;2023-02-15T11:36:06;19.92;;;17.83;;
15142;SDS011;7672;50.834;6.286;2023-02-15T11:38:49;19.55;;;17.63;;
15142;SDS011;7672;50.834;6.286;2023-02-15T11:44:54;19.35;;;17.27;;
15142;SDS011;7672;50.834;6.286;2023-02-15T11:47:44;19.20;;;15.98;;
15142;SDS011;7672;50.834;6.286;2023-02-15T11:50:18;18.65;;;16.70;;
15142;SDS011;7672;50.834;6.286;2023-02-15T11:52:56;19.48;;;17.05;;
15142;SDS011;7672;50.834;6.286;2023-02-15T11:55:28;18.95;;;16.88;;
15142;SDS011;7672;50.834;6.286;2023-02-15T11:58:03;18.90;;;16.90;;
15142;SDS011;7672;50.834;6.286;2023-02-15T12:00:56;23.95;;;19.02;;
15142;SDS011;7672;50.834;6.286;2023-02-15T12:11:12;18.85;;;16.60;;
15142;SDS011;7672;50.834;6.286;2023-02-15T12:14:07;20.63;;;15.98;;
15142;SDS011;7672;50.834;6.286;2023-02-15T12:17:58;17.38;;;15.48;;
15142;SDS011;7672;50.834;6.286;2023-02-15T12:20:28;21.38;;;16.65;;
15142;SDS011;7672;50.834;6.286;2023-02-15T12:23:20;18.10;;;15.97;;
15142;SDS011;7672;50.834;6.286;2023-02-15T12:26:22;19.23;;;16.13;;
15142;SDS011;7672;50.834;6.286;2023-02-15T12:29:41;19.50;;;15.87;;
15142;SDS011;7672;50.834;6.286;2023-02-15T12:32:19;18.87;;;16.23;;
15142;SDS011;7672;50.834;6.286;2023-02-15T12:34:59;18.87;;;15.93;;
15142;SDS011;7672;50.834;6.286;2023-02-15T12:41:45;18.60;;;16.00;;
15142;SDS011;7672;50.834;6.286;2023-02-15T12:44:32;16.73;;;14.93;;
15142;SDS011;7672;50.834;6.286;2023-02-15T12:47:05;18.50;;;14.27;;
15142;SDS011;7672;50.834;6.286;2023-02-15T12:56:13;17.60;;;14.13;;
15142;SDS011;7672;50.834;6.286;2023-02-15T12:59:05;18.43;;;15.03;;
15142;SDS011;7672;50.834;6.286;2023-02-15T13:02:01;21.13;;;15.30;;
15142;SDS011;7672;50.834;6.286;2023-02-15T13:04:50;24.37;;;15.23;;
15142;SDS011;7672;50.834;6.286;2023-02-15T13:07:34;19.53;;;16.07;;
15142;SDS011;7672;50.834;6.286;2023-02-15T13:10:21;20.53;;;15.57;;
15142;SDS011;7672;50.834;6.286;2023-02-15T13:13:17;22.63;;;16.03;;
15142;SDS011;7672;50.834;6.286;2023-02-15T13:16:07;18.63;;;15.37;;
15142;SDS011;7672;50.834;6.286;2023-02-15T13:18:48;21.90;;;15.33;;
15142;SDS011;7672;50.834;6.286;2023-02-15T13:21:22;16.50;;;14.63;;
15142;SDS011;7672;50.834;6.286;2023-02-15T13:24:10;16.20;;;14.43;;
15142;SDS011;7672;50.834;6.286;2023-02-15T13:26:59;18.93;;;14.93;;
15142;SDS011;7672;50.834;6.286;2023-02-15T13:29:42;18.37;;;14.87;;
15142;SDS011;7672;50.834;6.286;2023-02-15T13:32:22;21.50;;;15.80;;
15142;SDS011;7672;50.834;6.286;2023-02-15T13:38:25;21.87;;;15.47;;
15142;SDS011;7672;50.834;6.286;2023-02-15T13:41:17;18.53;;;14.50;;
15142;SDS011;7672;50.834;6.286;2023-02-15T13:59:02;20.40;;;15.83;;
15142;SDS011;7672;50.834;6.286;2023-02-15T14:01:56;18.87;;;15.27;;
15142;SDS011;7672;50.834;6.286;2023-02-15T14:16:55;20.70;;;14.80;;
15142;SDS011;7672;50.834;6.286;2023-02-15T14:23:11;18.43;;;14.70;;
15142;SDS011;7672;50.834;6.286;2023-02-15T14:26:02;18.20;;;14.70;;
15142;SDS011;7672;50.834;6.286;2023-02-15T14:32:24;20.07;;;15.77;;
15142;SDS011;7672;50.834;6.286;2023-02-15T14:35:17;19.90;;;15.37;;
15142;SDS011;7672;50.834;6.286;2023-02-15T14:37:54;21.13;;;15.90;;
15142;SDS011;7672;50.834;6.286;2023-02-15T14:47:00;26.50;;;16.37;;
15142;SDS011;7672;50.834;6.286;2023-02-15T14:49:44;24.17;;;15.47;;
15142;SDS011;7672;50.834;6.286;2023-02-15T14:52:20;27.83;;;16.50;;
15142;SDS011;7672;50.834;6.286;2023-02-15T14:55:07;25.80;;;16.47;;
15142;SDS011;7672;50.834;6.286;2023-02-15T14:57:34;26.07;;;16.20;;
15142;SDS011;7672;50.834;6.286;2023-02-15T15:00:23;31.10;;;16.17;;
15142;SDS011;7672;50.834;6.286;2023-02-15T15:03:23;27.67;;;15.30;;
15142;SDS011;7672;50.834;6.286;2023-02-15T15:05:52;26.53;;;14.97;;
15142;SDS011;7672;50.834;6.286;2023-02-15T15:08:32;29.03;;;15.47;;
15142;SDS011;7672;50.834;6.286;2023-02-15T15:17:12;25.13;;;14.87;;
15142;SDS011;7672;50.834;6.286;2023-02-15T15:20:11;33.33;;;16.50;;
15142;SDS011;7672;50.834;6.286;2023-02-15T15:23:36;30.60;;;16.10;;
15142;SDS011;7672;50.834;6.286;2023-02-15T15:26:30;34.57;;;16.13;;
15142;SDS011;7672;50.834;6.286;2023-02-15T15:29:06;33.60;;;15.93;;
15142;SDS011;7672;50.834;6.286;2023-02-15T15:32:08;38.00;;;17.77;;
15142;SDS011;7672;50.834;6.286;2023-02-15T15:35:43;29.43;;;15.23;;
15142;SDS011;7672;50.834;6.286;2023-02-15T15:50:13;23.33;;;15.70;;
15142;SDS011;7672;50.834;6.286;2023-02-15T15:52:54;22.63;;;15.73;;
15142;SDS011;7672;50.834;6.286;2023-02-15T15:55:25;21.50;;;15.90;;
15142;SDS011;7672;50.834;6.286;2023-02-15T15:57:57;22.27;;;16.43;;
15142;SDS011;7672;50.834;6.286;2023-02-15T16:03:22;21.47;;;16.47;;
15142;SDS011;7672;50.834;6.286;2023-02-15T16:05:55;23.53;;;16.37;;
15142;SDS011;7672;50.834;6.286;2023-02-15T16:08:29;34.63;;;15.43;;
15142;SDS011;7672;50.834;6.286;2023-02-15T16:11:15;25.23;;;16.07;;
15142;SDS011;7672;50.834;6.286;2023-02-15T16:13:49;32.37;;;16.00;;
15142;SDS011;7672;50.834;6.286;2023-02-15T16:16:21;26.27;;;15.40;;
15142;SDS011;7672;50.834;6.286;2023-02-15T16:18:59;34.13;;;15.30;;
15142;SDS011;7672;50.834;6.286;2023-02-15T16:21:34;30.23;;;16.53;;
15142;SDS011;7672;50.834;6.286;2023-02-15T16:27:07;29.40;;;15.80;;
15142;SDS011;7672;50.834;6.286;2023-02-15T16:29:55;33.90;;;15.13;;
15142;SDS011;7672;50.834;6.286;2023-02-15T16:32:32;30.27;;;16.27;;
15142;SDS011;7672;50.834;6.286;2023-02-15T16:35:02;31.27;;;16.67;;
15142;SDS011;7672;50.834;6.286;2023-02-15T16:37:46;32.27;;;15.63;;
15142;SDS011;7672;50.834;6.286;2023-02-15T16:42:51;27.20;;;15.30;;
15142;SDS011;7672;50.834;6.286;2023-02-15T16:45:24;34.37;;;16.60;;
15142;SDS011;7672;50.834;6.286;2023-02-15T16:48:04;32.93;;;16.23;;
15142;SDS011;7672;50.834;6.286;2023-02-15T16:50:47;26.60;;;15.43;;
15142;SDS011;7672;50.834;6.286;2023-02-15T16:53:23;28.77;;;15.43;;
15142;SDS011;7672;50.834;6.286;2023-02-15T16:56:01;31.90;;;18.07;;
15142;SDS011;7672;50.834;6.286;2023-02-15T16:58:35;31.20;;;19.37;;
15142;SDS011;7672;50.834;6.286;2023-02-15T17:01:19;32.77;;;20.17;;
15142;SDS011;7672;50.834;6.286;2023-02-15T17:04:13;29.90;;;18.87;;
15142;SDS011;7672;50.834;6.286;2023-02-15T17:07:00;30.57;;;19.00;;
15142;SDS011;7672;50.834;6.286;2023-02-15T17:09:34;31.98;;;18.42;;
15142;SDS011;7672;50.834;6.286;2023-02-15T17:15:24;31.80;;;18.43;;
15142;SDS011;7672;50.834;6.286;2023-02-15T17:18:08;27.93;;;18.70;;
15142;SDS011;7672;50.834;6.286;2023-02-15T17:20:56;30.80;;;19.53;;
15142;SDS011;7672;50.834;6.286;2023-02-15T17:23:33;31.53;;;19.53;;
15142;SDS011;7672;50.834;6.286;2023-02-15T17:26:14;31.50;;;21.83;;
15142;SDS011;7672;50.834;6.286;2023-02-15T17:28:57;31.23;;;22.10;;
15142;SDS011;7672;50.834;6.286;2023-02-15T17:31:30;32.63;;;22.03;;
15142;SDS011;7672;50.834;6.286;2023-02-15T17:33:59;37.25;;;28.55;;
15142;SDS011;7672;50.834;6.286;2023-02-15T17:36:36;35.03;;;24.70;;
15142;SDS011;7672;50.834;6.286;2023-02-15T17:39:25;33.20;;;23.20;;
15142;SDS011;7672;50.834;6.286;2023-02-15T17:41:55;31.67;;;23.27;;
15142;SDS011;7672;50.834;6.286;2023-02-15T17:44:25;41.93;;;26.23;;
15142;SDS011;7672;50.834;6.286;2023-02-15T17:46:55;31.83;;;23.37;;
15142;SDS011;7672;50.834;6.286;2023-02-15T17:49:24;39.63;;;22.63;;
15142;SDS011;7672;50.834;6.286;2023-02-15T17:52:00;37.30;;;19.27;;
15142;SDS011;7672;50.834;6.286;2023-02-15T17:54:31;34.40;;;19.83;;
15142;SDS011;7672;50.834;6.286;2023-02-15T17:57:18;32.97;;;19.10;;
15142;SDS011;7672;50.834;6.286;2023-02-15T17:59:58;34.57;;;23.63;;
15142;SDS011;7672;50.834;6.286;2023-02-15T18:02:46;35.50;;;24.43;;
15142;SDS011;7672;50.834;6.286;2023-02-15T18:05:31;38.00;;;24.27;;
15142;SDS011;7672;50.834;6.286;2023-02-15T18:08:18;36.83;;;23.87;;
15142;SDS011;7672;50.834;6.286;2023-02-15T18:11:11;35.53;;;25.60;;
15142;SDS011;7672;50.834;6.286;2023-02-15T18:13:57;41.10;;;26.03;;
15142;SDS011;7672;50.834;6.286;2023-02-15T18:16:46;38.23;;;24.70;;
15142;SDS011;7672;50.834;6.286;2023-02-15T18:19:16;40.70;;;24.67;;
15142;SDS011;7672;50.834;6.286;2023-02-15T18:21:54;31.13;;;20.97;;
15142;SDS011;7672;50.834;6.286;2023-02-15T18:24:24;39.20;;;21.03;;
15142;SDS011;7672;50.834;6.286;2023-02-15T18:26:55;31.07;;;20.63;;
15142;SDS011;7672;50.834;6.286;2023-02-15T18:29:22;30.30;;;20.00;;
15142;SDS011;7672;50.834;6.286;2023-02-15T18:31:51;28.10;;;20.83;;
15142;SDS011;7672;50.834;6.286;2023-02-15T18:34:26;29.30;;;20.53;;